CN-0149 weather

Fuzhou Air Base
Fuzhou, Fujian Province, China

Public forecast

Using degrees Celsius for public forecast. Weather courtesy of forecast.io.

METAR (pilot weather report)

Closest report is Fuzhou Changle International Airport, 19.4 nm (35.9 km) ESE. Retrieved 2019/05/19 22:00 UTC (43 minutes ago):

ZSFZ 192200Z VRB01MPS 2000 BR SCT003 BKN007 25/24 Q1006 NOSIG

TAF (pilot weather forecast)

Closest forecast is Fuzhou Changle International Airport, 19.4 nm (35.9 km) ESE. Retrieved 2019/05/19 18:00 UTC (5 hours ago):

TAF ZSFZ 191503Z 1918/2018 17003MPS 2200 BR BKN004 OVC013 TX26/2006Z TN20/1921Z TEMPO 1918/1924 3000 SHRA BKN005 OVC011 FEW030CB BECMG 1923/2001 04006MPS 3200 BR BKN005 OVC011 TEMPO 2004/2010 2500 TSRA SCT009 BKN015 SCT030CB